Terminal Aerodrome Forecast
Issued by NWS Louisville, KY

Home | Current Version | Previous Version | Text Only | Print | Product List | Glossary On
Versions: 1 2 3 4 5 6 7 8 9 10 11 12 13 14
000
FTUS43 KLMK 121100
TAFSDF
TAF
KSDF 121126Z 1212/1318 20005KT P6SM SCT070 BKN150
     FM121800 22007KT P6SM VCTS SCT040CB BKN070
     FM122000 24008KT P6SM SCT050 BKN150
     FM130300 22005KT P6SM SCT150
     FM130900 20006KT P6SM BKN120=

USA.gov is the U.S. government's official web portal to all federal, state and local government web resources and services.